sensor_id;sensor_type;location;lat;lon;timestamp;P1;durP1;ratioP1;P2;durP2;ratioP2
5507;SDS011;2776;51.046;6.772;2022-07-23T00:00:59;23.07;;;18.97;;
5507;SDS011;2776;51.046;6.772;2022-07-23T00:03:26;22.70;;;19.10;;
5507;SDS011;2776;51.046;6.772;2022-07-23T00:05:53;23.77;;;18.63;;
5507;SDS011;2776;51.046;6.772;2022-07-23T00:08:20;23.10;;;18.63;;
5507;SDS011;2776;51.046;6.772;2022-07-23T00:10:48;20.93;;;18.63;;
5507;SDS011;2776;51.046;6.772;2022-07-23T00:13:15;21.87;;;19.17;;
5507;SDS011;2776;51.046;6.772;2022-07-23T00:15:41;23.00;;;20.13;;
5507;SDS011;2776;51.046;6.772;2022-07-23T00:18:08;23.63;;;19.77;;
5507;SDS011;2776;51.046;6.772;2022-07-23T00:20:35;23.53;;;20.90;;
5507;SDS011;2776;51.046;6.772;2022-07-23T00:23:02;24.27;;;20.57;;
5507;SDS011;2776;51.046;6.772;2022-07-23T00:25:29;25.97;;;20.27;;
5507;SDS011;2776;51.046;6.772;2022-07-23T00:27:57;23.97;;;20.67;;
5507;SDS011;2776;51.046;6.772;2022-07-23T00:30:24;26.67;;;21.23;;
5507;SDS011;2776;51.046;6.772;2022-07-23T00:32:51;27.57;;;21.70;;
5507;SDS011;2776;51.046;6.772;2022-07-23T00:35:21;25.40;;;20.97;;
5507;SDS011;2776;51.046;6.772;2022-07-23T00:37:48;30.50;;;21.77;;
5507;SDS011;2776;51.046;6.772;2022-07-23T00:40:15;24.50;;;20.47;;
5507;SDS011;2776;51.046;6.772;2022-07-23T00:42:42;25.63;;;21.90;;
5507;SDS011;2776;51.046;6.772;2022-07-23T00:45:11;26.77;;;21.27;;
5507;SDS011;2776;51.046;6.772;2022-07-23T00:47:38;24.80;;;21.13;;
5507;SDS011;2776;51.046;6.772;2022-07-23T00:50:05;24.77;;;21.70;;
5507;SDS011;2776;51.046;6.772;2022-07-23T00:52:33;26.83;;;22.73;;
5507;SDS011;2776;51.046;6.772;2022-07-23T00:55:01;27.37;;;22.40;;
5507;SDS011;2776;51.046;6.772;2022-07-23T00:57:29;28.90;;;22.37;;
5507;SDS011;2776;51.046;6.772;2022-07-23T00:59:56;30.10;;;23.77;;
5507;SDS011;2776;51.046;6.772;2022-07-23T01:02:25;30.93;;;24.13;;
5507;SDS011;2776;51.046;6.772;2022-07-23T01:04:52;33.53;;;23.90;;
5507;SDS011;2776;51.046;6.772;2022-07-23T01:07:19;32.60;;;24.53;;
5507;SDS011;2776;51.046;6.772;2022-07-23T01:09:47;29.93;;;24.13;;
5507;SDS011;2776;51.046;6.772;2022-07-23T01:12:15;29.60;;;23.60;;
5507;SDS011;2776;51.046;6.772;2022-07-23T01:14:42;30.13;;;24.00;;
5507;SDS011;2776;51.046;6.772;2022-07-23T01:17:09;32.97;;;24.70;;
5507;SDS011;2776;51.046;6.772;2022-07-23T01:19:37;31.47;;;25.10;;
5507;SDS011;2776;51.046;6.772;2022-07-23T01:22:04;29.43;;;24.63;;
5507;SDS011;2776;51.046;6.772;2022-07-23T01:24:33;35.00;;;26.07;;
5507;SDS011;2776;51.046;6.772;2022-07-23T01:26:59;29.07;;;24.20;;
5507;SDS011;2776;51.046;6.772;2022-07-23T01:29:26;36.00;;;26.23;;
5507;SDS011;2776;51.046;6.772;2022-07-23T01:31:53;29.10;;;23.50;;
5507;SDS011;2776;51.046;6.772;2022-07-23T01:34:20;31.33;;;26.30;;
5507;SDS011;2776;51.046;6.772;2022-07-23T01:36:46;30.80;;;25.67;;
5507;SDS011;2776;51.046;6.772;2022-07-23T01:39:13;31.23;;;26.40;;
5507;SDS011;2776;51.046;6.772;2022-07-23T01:41:41;31.90;;;24.60;;
5507;SDS011;2776;51.046;6.772;2022-07-23T01:44:08;30.03;;;25.17;;
5507;SDS011;2776;51.046;6.772;2022-07-23T01:46:35;31.23;;;25.10;;
5507;SDS011;2776;51.046;6.772;2022-07-23T01:49:02;32.67;;;25.57;;
5507;SDS011;2776;51.046;6.772;2022-07-23T01:51:28;31.83;;;26.30;;
5507;SDS011;2776;51.046;6.772;2022-07-23T01:53:55;32.63;;;26.47;;
5507;SDS011;2776;51.046;6.772;2022-07-23T01:56:22;32.53;;;26.33;;
5507;SDS011;2776;51.046;6.772;2022-07-23T01:58:50;35.97;;;25.57;;
5507;SDS011;2776;51.046;6.772;2022-07-23T02:01:17;34.23;;;27.57;;
5507;SDS011;2776;51.046;6.772;2022-07-23T02:03:43;34.40;;;27.00;;
5507;SDS011;2776;51.046;6.772;2022-07-23T02:06:10;35.30;;;27.90;;
5507;SDS011;2776;51.046;6.772;2022-07-23T02:08:37;31.30;;;25.70;;
5507;SDS011;2776;51.046;6.772;2022-07-23T02:11:04;31.90;;;25.33;;
5507;SDS011;2776;51.046;6.772;2022-07-23T02:13:31;35.27;;;26.20;;
5507;SDS011;2776;51.046;6.772;2022-07-23T02:15:59;33.83;;;25.50;;
5507;SDS011;2776;51.046;6.772;2022-07-23T02:18:26;35.87;;;26.23;;
5507;SDS011;2776;51.046;6.772;2022-07-23T02:20:52;39.83;;;27.47;;
5507;SDS011;2776;51.046;6.772;2022-07-23T02:23:19;34.40;;;27.33;;
5507;SDS011;2776;51.046;6.772;2022-07-23T02:25:46;37.30;;;27.70;;
5507;SDS011;2776;51.046;6.772;2022-07-23T02:28:13;44.47;;;30.50;;
5507;SDS011;2776;51.046;6.772;2022-07-23T02:30:40;44.33;;;31.67;;
5507;SDS011;2776;51.046;6.772;2022-07-23T02:33:08;42.50;;;29.57;;
5507;SDS011;2776;51.046;6.772;2022-07-23T02:35:35;43.17;;;30.27;;
5507;SDS011;2776;51.046;6.772;2022-07-23T02:38:02;42.30;;;30.83;;
5507;SDS011;2776;51.046;6.772;2022-07-23T02:40:29;40.80;;;30.60;;
5507;SDS011;2776;51.046;6.772;2022-07-23T02:42:56;38.07;;;29.37;;
5507;SDS011;2776;51.046;6.772;2022-07-23T02:45:22;34.43;;;26.73;;
5507;SDS011;2776;51.046;6.772;2022-07-23T02:47:49;33.07;;;26.30;;
5507;SDS011;2776;51.046;6.772;2022-07-23T02:50:18;32.30;;;25.80;;
5507;SDS011;2776;51.046;6.772;2022-07-23T02:52:44;31.87;;;25.77;;
5507;SDS011;2776;51.046;6.772;2022-07-23T02:55:11;31.47;;;25.50;;
5507;SDS011;2776;51.046;6.772;2022-07-23T02:57:38;33.90;;;26.07;;
5507;SDS011;2776;51.046;6.772;2022-07-23T03:00:05;34.73;;;26.67;;
5507;SDS011;2776;51.046;6.772;2022-07-23T03:02:33;31.07;;;24.73;;
5507;SDS011;2776;51.046;6.772;2022-07-23T03:05:00;34.87;;;26.57;;
5507;SDS011;2776;51.046;6.772;2022-07-23T03:07:28;37.33;;;26.93;;
5507;SDS011;2776;51.046;6.772;2022-07-23T03:09:55;37.67;;;27.50;;
5507;SDS011;2776;51.046;6.772;2022-07-23T03:12:22;37.83;;;27.23;;
5507;SDS011;2776;51.046;6.772;2022-07-23T03:14:49;36.40;;;27.73;;
5507;SDS011;2776;51.046;6.772;2022-07-23T03:17:15;39.07;;;27.40;;
5507;SDS011;2776;51.046;6.772;2022-07-23T03:19:42;40.47;;;28.50;;
5507;SDS011;2776;51.046;6.772;2022-07-23T03:22:09;40.40;;;27.67;;
5507;SDS011;2776;51.046;6.772;2022-07-23T03:24:37;37.30;;;28.67;;
5507;SDS011;2776;51.046;6.772;2022-07-23T03:27:22;35.17;;;27.13;;
5507;SDS011;2776;51.046;6.772;2022-07-23T03:29:50;37.43;;;28.13;;
5507;SDS011;2776;51.046;6.772;2022-07-23T03:32:17;42.67;;;28.83;;
5507;SDS011;2776;51.046;6.772;2022-07-23T03:34:44;38.47;;;28.27;;
5507;SDS011;2776;51.046;6.772;2022-07-23T03:37:11;38.80;;;28.07;;
5507;SDS011;2776;51.046;6.772;2022-07-23T03:39:39;41.23;;;29.70;;
5507;SDS011;2776;51.046;6.772;2022-07-23T03:42:07;43.63;;;28.73;;
5507;SDS011;2776;51.046;6.772;2022-07-23T03:44:33;38.87;;;28.83;;
5507;SDS011;2776;51.046;6.772;2022-07-23T03:47:01;41.47;;;30.43;;
5507;SDS011;2776;51.046;6.772;2022-07-23T03:49:28;47.53;;;30.37;;
5507;SDS011;2776;51.046;6.772;2022-07-23T03:51:55;41.33;;;30.03;;
5507;SDS011;2776;51.046;6.772;2022-07-23T03:54:22;42.87;;;31.03;;
5507;SDS011;2776;51.046;6.772;2022-07-23T03:56:50;42.93;;;30.13;;
5507;SDS011;2776;51.046;6.772;2022-07-23T03:59:17;44.87;;;30.33;;
5507;SDS011;2776;51.046;6.772;2022-07-23T04:01:44;41.77;;;30.23;;
5507;SDS011;2776;51.046;6.772;2022-07-23T04:04:11;43.13;;;29.07;;
5507;SDS011;2776;51.046;6.772;2022-07-23T04:06:37;41.47;;;29.07;;
5507;SDS011;2776;51.046;6.772;2022-07-23T04:09:04;46.40;;;29.50;;
5507;SDS011;2776;51.046;6.772;2022-07-23T04:11:31;44.50;;;29.47;;
5507;SDS011;2776;51.046;6.772;2022-07-23T04:13:59;42.83;;;29.53;;
5507;SDS011;2776;51.046;6.772;2022-07-23T04:16:26;40.23;;;28.83;;
5507;SDS011;2776;51.046;6.772;2022-07-23T04:18:53;40.37;;;29.63;;
5507;SDS011;2776;51.046;6.772;2022-07-23T04:21:20;43.07;;;30.00;;
5507;SDS011;2776;51.046;6.772;2022-07-23T04:23:47;40.23;;;29.33;;
5507;SDS011;2776;51.046;6.772;2022-07-23T04:26:13;44.37;;;30.03;;
5507;SDS011;2776;51.046;6.772;2022-07-23T04:28:40;35.53;;;26.80;;
5507;SDS011;2776;51.046;6.772;2022-07-23T04:31:09;40.20;;;27.90;;
5507;SDS011;2776;51.046;6.772;2022-07-23T04:33:35;38.17;;;26.80;;
5507;SDS011;2776;51.046;6.772;2022-07-23T04:36:03;37.37;;;27.70;;
5507;SDS011;2776;51.046;6.772;2022-07-23T04:38:30;41.77;;;29.40;;
5507;SDS011;2776;51.046;6.772;2022-07-23T04:40:57;37.83;;;29.97;;
5507;SDS011;2776;51.046;6.772;2022-07-23T04:43:24;38.97;;;28.17;;
5507;SDS011;2776;51.046;6.772;2022-07-23T04:45:51;38.33;;;27.90;;
5507;SDS011;2776;51.046;6.772;2022-07-23T04:48:19;33.83;;;27.13;;
5507;SDS011;2776;51.046;6.772;2022-07-23T04:50:46;34.80;;;27.97;;
5507;SDS011;2776;51.046;6.772;2022-07-23T04:53:12;35.43;;;28.03;;
5507;SDS011;2776;51.046;6.772;2022-07-23T04:55:39;35.20;;;27.00;;
5507;SDS011;2776;51.046;6.772;2022-07-23T04:58:06;33.93;;;26.77;;
5507;SDS011;2776;51.046;6.772;2022-07-23T05:00:33;31.90;;;25.63;;
5507;SDS011;2776;51.046;6.772;2022-07-23T05:03:00;27.13;;;23.10;;
5507;SDS011;2776;51.046;6.772;2022-07-23T05:05:28;28.57;;;24.30;;
5507;SDS011;2776;51.046;6.772;2022-07-23T05:07:54;26.87;;;22.70;;
5507;SDS011;2776;51.046;6.772;2022-07-23T05:10:21;27.73;;;23.43;;
5507;SDS011;2776;51.046;6.772;2022-07-23T05:12:48;27.13;;;23.57;;
5507;SDS011;2776;51.046;6.772;2022-07-23T05:15:15;25.60;;;22.87;;
5507;SDS011;2776;51.046;6.772;2022-07-23T05:17:41;22.87;;;20.47;;
5507;SDS011;2776;51.046;6.772;2022-07-23T05:20:08;24.70;;;20.97;;
5507;SDS011;2776;51.046;6.772;2022-07-23T05:22:37;22.43;;;20.10;;
5507;SDS011;2776;51.046;6.772;2022-07-23T05:25:04;22.57;;;20.27;;
5507;SDS011;2776;51.046;6.772;2022-07-23T05:27:32;21.73;;;18.97;;
5507;SDS011;2776;51.046;6.772;2022-07-23T05:29:59;20.37;;;18.37;;
5507;SDS011;2776;51.046;6.772;2022-07-23T05:32:26;19.50;;;17.57;;
5507;SDS011;2776;51.046;6.772;2022-07-23T05:34:52;20.33;;;17.15;;
5507;SDS011;2776;51.046;6.772;2022-07-23T05:37:19;16.73;;;15.03;;
5507;SDS011;2776;51.046;6.772;2022-07-23T05:39:47;17.02;;;14.93;;
5507;SDS011;2776;51.046;6.772;2022-07-23T05:42:15;15.52;;;13.88;;
5507;SDS011;2776;51.046;6.772;2022-07-23T05:44:42;15.77;;;14.10;;
5507;SDS011;2776;51.046;6.772;2022-07-23T05:47:08;14.30;;;12.77;;
5507;SDS011;2776;51.046;6.772;2022-07-23T05:49:36;17.58;;;13.32;;
5507;SDS011;2776;51.046;6.772;2022-07-23T05:52:04;14.70;;;12.82;;
5507;SDS011;2776;51.046;6.772;2022-07-23T05:54:33;13.55;;;12.15;;
5507;SDS011;2776;51.046;6.772;2022-07-23T05:57:02;14.60;;;11.93;;
5507;SDS011;2776;51.046;6.772;2022-07-23T05:59:29;13.52;;;12.20;;
5507;SDS011;2776;51.046;6.772;2022-07-23T06:01:57;14.00;;;11.32;;
5507;SDS011;2776;51.046;6.772;2022-07-23T06:04:23;13.68;;;10.80;;
5507;SDS011;2776;51.046;6.772;2022-07-23T06:06:51;13.52;;;10.60;;
5507;SDS011;2776;51.046;6.772;2022-07-23T06:09:18;13.88;;;10.98;;
5507;SDS011;2776;51.046;6.772;2022-07-23T06:11:44;12.45;;;11.15;;
5507;SDS011;2776;51.046;6.772;2022-07-23T06:14:12;11.98;;;9.90;;
5507;SDS011;2776;51.046;6.772;2022-07-23T06:16:39;11.18;;;9.32;;
5507;SDS011;2776;51.046;6.772;2022-07-23T06:19:06;11.77;;;9.68;;
5507;SDS011;2776;51.046;6.772;2022-07-23T06:21:33;13.93;;;10.75;;
5507;SDS011;2776;51.046;6.772;2022-07-23T06:24:00;12.52;;;10.73;;
5507;SDS011;2776;51.046;6.772;2022-07-23T06:26:26;11.15;;;10.00;;
5507;SDS011;2776;51.046;6.772;2022-07-23T06:28:53;12.73;;;10.48;;
5507;SDS011;2776;51.046;6.772;2022-07-23T06:31:21;11.70;;;10.40;;
5507;SDS011;2776;51.046;6.772;2022-07-23T06:33:48;12.05;;;10.52;;
5507;SDS011;2776;51.046;6.772;2022-07-23T06:36:15;14.70;;;10.98;;
5507;SDS011;2776;51.046;6.772;2022-07-23T06:38:42;13.48;;;11.40;;
5507;SDS011;2776;51.046;6.772;2022-07-23T06:41:09;13.68;;;11.23;;
5507;SDS011;2776;51.046;6.772;2022-07-23T06:43:35;13.82;;;11.02;;
5507;SDS011;2776;51.046;6.772;2022-07-23T06:46:02;12.82;;;11.05;;
5507;SDS011;2776;51.046;6.772;2022-07-23T06:48:30;13.30;;;11.90;;
5507;SDS011;2776;51.046;6.772;2022-07-23T06:50:59;14.40;;;11.13;;
5507;SDS011;2776;51.046;6.772;2022-07-23T06:53:26;12.57;;;11.00;;
5507;SDS011;2776;51.046;6.772;2022-07-23T06:55:52;12.98;;;11.32;;
5507;SDS011;2776;51.046;6.772;2022-07-23T06:58:19;12.85;;;10.80;;
5507;SDS011;2776;51.046;6.772;2022-07-23T07:00:46;15.32;;;12.05;;
5507;SDS011;2776;51.046;6.772;2022-07-23T07:03:13;13.38;;;12.02;;
5507;SDS011;2776;51.046;6.772;2022-07-23T07:05:41;13.95;;;11.88;;
5507;SDS011;2776;51.046;6.772;2022-07-23T07:08:08;14.63;;;11.50;;
5507;SDS011;2776;51.046;6.772;2022-07-23T07:10:34;15.77;;;12.30;;
5507;SDS011;2776;51.046;6.772;2022-07-23T07:13:01;14.45;;;11.45;;
5507;SDS011;2776;51.046;6.772;2022-07-23T07:15:28;15.68;;;11.80;;
5507;SDS011;2776;51.046;6.772;2022-07-23T07:17:55;13.20;;;11.25;;
5507;SDS011;2776;51.046;6.772;2022-07-23T07:20:22;11.77;;;10.65;;
5507;SDS011;2776;51.046;6.772;2022-07-23T07:22:50;16.48;;;11.45;;
5507;SDS011;2776;51.046;6.772;2022-07-23T07:25:17;16.00;;;11.75;;
5507;SDS011;2776;51.046;6.772;2022-07-23T07:27:44;15.05;;;12.48;;
5507;SDS011;2776;51.046;6.772;2022-07-23T07:30:11;18.55;;;13.02;;
5507;SDS011;2776;51.046;6.772;2022-07-23T07:32:38;14.93;;;12.35;;
5507;SDS011;2776;51.046;6.772;2022-07-23T07:35:05;15.70;;;12.32;;
5507;SDS011;2776;51.046;6.772;2022-07-23T07:37:32;16.52;;;12.98;;
5507;SDS011;2776;51.046;6.772;2022-07-23T07:40:01;17.50;;;13.68;;
5507;SDS011;2776;51.046;6.772;2022-07-23T07:42:28;16.58;;;13.52;;
5507;SDS011;2776;51.046;6.772;2022-07-23T07:44:57;18.50;;;14.57;;
5507;SDS011;2776;51.046;6.772;2022-07-23T07:47:25;17.88;;;14.23;;
5507;SDS011;2776;51.046;6.772;2022-07-23T07:49:51;19.98;;;14.20;;
5507;SDS011;2776;51.046;6.772;2022-07-23T07:52:19;18.58;;;14.90;;
5507;SDS011;2776;51.046;6.772;2022-07-23T07:54:45;23.15;;;16.60;;
5507;SDS011;2776;51.046;6.772;2022-07-23T07:57:13;20.45;;;15.85;;
5507;SDS011;2776;51.046;6.772;2022-07-23T07:59:40;23.65;;;18.15;;
5507;SDS011;2776;51.046;6.772;2022-07-23T08:02:07;21.33;;;17.27;;
5507;SDS011;2776;51.046;6.772;2022-07-23T08:04:34;23.08;;;18.20;;
5507;SDS011;2776;51.046;6.772;2022-07-23T08:07:00;18.33;;;15.48;;
5507;SDS011;2776;51.046;6.772;2022-07-23T08:09:27;20.25;;;14.68;;
5507;SDS011;2776;51.046;6.772;2022-07-23T08:11:54;21.40;;;15.00;;
5507;SDS011;2776;51.046;6.772;2022-07-23T08:14:22;21.38;;;14.77;;
5507;SDS011;2776;51.046;6.772;2022-07-23T08:16:49;16.60;;;12.70;;
5507;SDS011;2776;51.046;6.772;2022-07-23T08:19:16;15.95;;;12.57;;
5507;SDS011;2776;51.046;6.772;2022-07-23T08:21:42;14.82;;;13.18;;
5507;SDS011;2776;51.046;6.772;2022-07-23T08:24:09;18.10;;;13.73;;
5507;SDS011;2776;51.046;6.772;2022-07-23T08:26:36;15.75;;;13.77;;
5507;SDS011;2776;51.046;6.772;2022-07-23T08:29:03;14.27;;;12.38;;
5507;SDS011;2776;51.046;6.772;2022-07-23T08:31:31;15.18;;;12.82;;
5507;SDS011;2776;51.046;6.772;2022-07-23T08:33:58;15.95;;;12.05;;
5507;SDS011;2776;51.046;6.772;2022-07-23T08:36:27;14.52;;;12.93;;
5507;SDS011;2776;51.046;6.772;2022-07-23T08:38:57;17.08;;;13.05;;
5507;SDS011;2776;51.046;6.772;2022-07-23T08:41:23;15.25;;;13.57;;
5507;SDS011;2776;51.046;6.772;2022-07-23T08:43:50;17.98;;;13.98;;
5507;SDS011;2776;51.046;6.772;2022-07-23T08:46:18;12.77;;;10.38;;
5507;SDS011;2776;51.046;6.772;2022-07-23T08:48:47;14.82;;;12.05;;
5507;SDS011;2776;51.046;6.772;2022-07-23T08:51:15;16.98;;;12.07;;
5507;SDS011;2776;51.046;6.772;2022-07-23T08:53:42;16.60;;;12.15;;
5507;SDS011;2776;51.046;6.772;2022-07-23T08:56:10;13.52;;;11.23;;
5507;SDS011;2776;51.046;6.772;2022-07-23T08:58:37;14.90;;;11.93;;
5507;SDS011;2776;51.046;6.772;2022-07-23T09:01:04;13.85;;;12.05;;
5507;SDS011;2776;51.046;6.772;2022-07-23T09:03:31;15.90;;;12.35;;
5507;SDS011;2776;51.046;6.772;2022-07-23T09:06:02;14.60;;;11.23;;
5507;SDS011;2776;51.046;6.772;2022-07-23T09:08:34;14.07;;;11.43;;
5507;SDS011;2776;51.046;6.772;2022-07-23T09:11:03;11.63;;;10.43;;
5507;SDS011;2776;51.046;6.772;2022-07-23T09:13:32;12.07;;;10.88;;
5507;SDS011;2776;51.046;6.772;2022-07-23T09:16:02;14.63;;;11.60;;
5507;SDS011;2776;51.046;6.772;2022-07-23T09:18:32;12.63;;;10.00;;
5507;SDS011;2776;51.046;6.772;2022-07-23T09:21:11;14.52;;;10.30;;
5507;SDS011;2776;51.046;6.772;2022-07-23T09:23:50;15.60;;;10.85;;
5507;SDS011;2776;51.046;6.772;2022-07-23T09:26:31;14.25;;;11.65;;
5507;SDS011;2776;51.046;6.772;2022-07-23T09:29:00;11.38;;;8.93;;
5507;SDS011;2776;51.046;6.772;2022-07-23T09:31:33;11.15;;;9.70;;
5507;SDS011;2776;51.046;6.772;2022-07-23T09:34:12;9.25;;;8.18;;
5507;SDS011;2776;51.046;6.772;2022-07-23T09:36:41;11.52;;;9.18;;
5507;SDS011;2776;51.046;6.772;2022-07-23T09:39:09;10.82;;;9.68;;
5507;SDS011;2776;51.046;6.772;2022-07-23T09:41:37;13.43;;;10.93;;
5507;SDS011;2776;51.046;6.772;2022-07-23T09:44:10;12.05;;;9.98;;
5507;SDS011;2776;51.046;6.772;2022-07-23T09:46:39;11.38;;;10.07;;
5507;SDS011;2776;51.046;6.772;2022-07-23T09:49:13;12.23;;;10.93;;
5507;SDS011;2776;51.046;6.772;2022-07-23T09:51:50;14.35;;;10.68;;
5507;SDS011;2776;51.046;6.772;2022-07-23T09:54:23;10.73;;;9.65;;
5507;SDS011;2776;51.046;6.772;2022-07-23T09:56:52;10.45;;;9.23;;
5507;SDS011;2776;51.046;6.772;2022-07-23T09:59:21;12.25;;;11.05;;
5507;SDS011;2776;51.046;6.772;2022-07-23T10:01:50;9.98;;;9.00;;
5507;SDS011;2776;51.046;6.772;2022-07-23T10:04:19;12.00;;;10.63;;
5507;SDS011;2776;51.046;6.772;2022-07-23T10:06:47;16.52;;;14.73;;
5507;SDS011;2776;51.046;6.772;2022-07-23T10:09:17;10.93;;;9.93;;
5507;SDS011;2776;51.046;6.772;2022-07-23T10:11:50;11.48;;;10.38;;
5507;SDS011;2776;51.046;6.772;2022-07-23T10:14:18;13.15;;;10.65;;
5507;SDS011;2776;51.046;6.772;2022-07-23T10:16:45;12.05;;;10.50;;
5507;SDS011;2776;51.046;6.772;2022-07-23T10:19:11;14.65;;;12.60;;
5507;SDS011;2776;51.046;6.772;2022-07-23T10:21:40;12.80;;;11.07;;
5507;SDS011;2776;51.046;6.772;2022-07-23T10:24:15;10.60;;;9.52;;
5507;SDS011;2776;51.046;6.772;2022-07-23T10:26:50;10.85;;;9.80;;
5507;SDS011;2776;51.046;6.772;2022-07-23T10:29:27;10.98;;;9.40;;
5507;SDS011;2776;51.046;6.772;2022-07-23T10:32:04;11.32;;;9.15;;
5507;SDS011;2776;51.046;6.772;2022-07-23T10:34:40;9.20;;;8.07;;
5507;SDS011;2776;51.046;6.772;2022-07-23T10:37:16;9.30;;;8.38;;
5507;SDS011;2776;51.046;6.772;2022-07-23T10:39:49;10.75;;;9.65;;
5507;SDS011;2776;51.046;6.772;2022-07-23T10:42:35;11.27;;;8.27;;
5507;SDS011;2776;51.046;6.772;2022-07-23T10:45:15;8.77;;;7.53;;
5507;SDS011;2776;51.046;6.772;2022-07-23T10:47:49;8.85;;;7.57;;
5507;SDS011;2776;51.046;6.772;2022-07-23T10:50:17;9.98;;;6.72;;
5507;SDS011;2776;51.046;6.772;2022-07-23T10:55:44;8.25;;;6.63;;
5507;SDS011;2776;51.046;6.772;2022-07-23T10:58:17;6.28;;;5.38;;
5507;SDS011;2776;51.046;6.772;2022-07-23T11:00:45;5.78;;;5.22;;
5507;SDS011;2776;51.046;6.772;2022-07-23T11:06:03;6.53;;;5.68;;
5507;SDS011;2776;51.046;6.772;2022-07-23T11:08:31;6.93;;;5.78;;
5507;SDS011;2776;51.046;6.772;2022-07-23T11:11:08;6.80;;;5.50;;
5507;SDS011;2776;51.046;6.772;2022-07-23T11:13:37;7.40;;;6.28;;
5507;SDS011;2776;51.046;6.772;2022-07-23T11:16:08;7.22;;;5.70;;
5507;SDS011;2776;51.046;6.772;2022-07-23T11:18:56;6.53;;;5.88;;
5507;SDS011;2776;51.046;6.772;2022-07-23T11:21:42;9.02;;;5.97;;
5507;SDS011;2776;51.046;6.772;2022-07-23T11:24:14;6.72;;;5.28;;
5507;SDS011;2776;51.046;6.772;2022-07-23T11:26:46;7.68;;;5.90;;
5507;SDS011;2776;51.046;6.772;2022-07-23T11:32:24;8.80;;;6.70;;
5507;SDS011;2776;51.046;6.772;2022-07-23T11:34:54;5.00;;;4.43;;
5507;SDS011;2776;51.046;6.772;2022-07-23T11:37:32;6.20;;;5.60;;
5507;SDS011;2776;51.046;6.772;2022-07-23T11:40:02;7.00;;;3.67;;
5507;SDS011;2776;51.046;6.772;2022-07-23T11:42:33;3.50;;;3.20;;
5507;SDS011;2776;51.046;6.772;2022-07-23T11:45:01;4.80;;;3.13;;
5507;SDS011;2776;51.046;6.772;2022-07-23T11:47:28;4.15;;;3.00;;
5507;SDS011;2776;51.046;6.772;2022-07-23T11:49:56;3.65;;;3.25;;
5507;SDS011;2776;51.046;6.772;2022-07-23T11:52:24;3.45;;;3.08;;
5507;SDS011;2776;51.046;6.772;2022-07-23T11:54:53;3.92;;;2.90;;
5507;SDS011;2776;51.046;6.772;2022-07-23T11:57:23;2.55;;;2.35;;
5507;SDS011;2776;51.046;6.772;2022-07-23T11:59:53;3.40;;;2.55;;
5507;SDS011;2776;51.046;6.772;2022-07-23T12:02:22;3.85;;;2.90;;
5507;SDS011;2776;51.046;6.772;2022-07-23T12:04:50;5.13;;;2.90;;
5507;SDS011;2776;51.046;6.772;2022-07-23T12:07:24;3.13;;;2.83;;
5507;SDS011;2776;51.046;6.772;2022-07-23T12:09:56;4.78;;;2.78;;
5507;SDS011;2776;51.046;6.772;2022-07-23T12:12:24;3.63;;;2.20;;
5507;SDS011;2776;51.046;6.772;2022-07-23T12:14:53;2.70;;;2.50;;
5507;SDS011;2776;51.046;6.772;2022-07-23T12:17:27;3.63;;;2.33;;
5507;SDS011;2776;51.046;6.772;2022-07-23T12:19:55;2.47;;;2.30;;
5507;SDS011;2776;51.046;6.772;2022-07-23T12:22:24;4.55;;;2.70;;
5507;SDS011;2776;51.046;6.772;2022-07-23T12:24:53;4.93;;;2.15;;
5507;SDS011;2776;51.046;6.772;2022-07-23T12:27:21;3.88;;;3.45;;
5507;SDS011;2776;51.046;6.772;2022-07-23T12:29:49;3.15;;;2.42;;
5507;SDS011;2776;51.046;6.772;2022-07-23T12:32:18;4.43;;;2.60;;
5507;SDS011;2776;51.046;6.772;2022-07-23T12:34:48;3.30;;;2.90;;
5507;SDS011;2776;51.046;6.772;2022-07-23T12:37:27;2.40;;;2.10;;
5507;SDS011;2776;51.046;6.772;2022-07-23T12:39:56;2.60;;;2.40;;
5507;SDS011;2776;51.046;6.772;2022-07-23T12:42:23;3.72;;;2.30;;
5507;SDS011;2776;51.046;6.772;2022-07-23T12:45:03;2.53;;;2.13;;
5507;SDS011;2776;51.046;6.772;2022-07-23T12:53:22;3.45;;;2.38;;
5507;SDS011;2776;51.046;6.772;2022-07-23T12:55:56;4.93;;;3.50;;
5507;SDS011;2776;51.046;6.772;2022-07-23T12:58:38;2.90;;;2.15;;
5507;SDS011;2776;51.046;6.772;2022-07-23T13:01:06;4.53;;;2.65;;
5507;SDS011;2776;51.046;6.772;2022-07-23T13:03:36;2.08;;;1.88;;
5507;SDS011;2776;51.046;6.772;2022-07-23T13:06:06;5.88;;;2.08;;
5507;SDS011;2776;51.046;6.772;2022-07-23T13:08:35;2.65;;;2.10;;
5507;SDS011;2776;51.046;6.772;2022-07-23T13:11:05;3.78;;;2.70;;
5507;SDS011;2776;51.046;6.772;2022-07-23T13:13:33;6.45;;;3.30;;
5507;SDS011;2776;51.046;6.772;2022-07-23T13:16:00;4.93;;;3.67;;
5507;SDS011;2776;51.046;6.772;2022-07-23T13:18:28;3.72;;;2.20;;
5507;SDS011;2776;51.046;6.772;2022-07-23T13:20:56;2.65;;;2.40;;
5507;SDS011;2776;51.046;6.772;2022-07-23T13:23:23;3.55;;;2.20;;
5507;SDS011;2776;51.046;6.772;2022-07-23T13:25:51;4.90;;;2.70;;
5507;SDS011;2776;51.046;6.772;2022-07-23T13:28:18;14.50;;;11.50;;
5507;SDS011;2776;51.046;6.772;2022-07-23T13:30:46;4.75;;;3.42;;
5507;SDS011;2776;51.046;6.772;2022-07-23T13:33:14;4.90;;;3.38;;
5507;SDS011;2776;51.046;6.772;2022-07-23T13:35:41;3.42;;;2.20;;
5507;SDS011;2776;51.046;6.772;2022-07-23T13:38:10;4.82;;;2.05;;
5507;SDS011;2776;51.046;6.772;2022-07-23T13:40:37;4.65;;;2.53;;
5507;SDS011;2776;51.046;6.772;2022-07-23T13:43:07;4.22;;;3.00;;
5507;SDS011;2776;51.046;6.772;2022-07-23T13:45:34;3.75;;;2.63;;
5507;SDS011;2776;51.046;6.772;2022-07-23T13:48:02;3.45;;;3.15;;
5507;SDS011;2776;51.046;6.772;2022-07-23T13:50:30;3.50;;;2.88;;
5507;SDS011;2776;51.046;6.772;2022-07-23T13:53:00;3.50;;;3.20;;
5507;SDS011;2776;51.046;6.772;2022-07-23T13:55:29;4.70;;;2.50;;
5507;SDS011;2776;51.046;6.772;2022-07-23T13:57:56;4.22;;;2.72;;
5507;SDS011;2776;51.046;6.772;2022-07-23T14:00:23;3.08;;;2.67;;
5507;SDS011;2776;51.046;6.772;2022-07-23T14:02:50;3.88;;;3.42;;
5507;SDS011;2776;51.046;6.772;2022-07-23T14:05:17;4.30;;;3.88;;
5507;SDS011;2776;51.046;6.772;2022-07-23T14:07:44;4.82;;;2.63;;
5507;SDS011;2776;51.046;6.772;2022-07-23T14:10:12;4.43;;;3.38;;
5507;SDS011;2776;51.046;6.772;2022-07-23T14:12:40;4.20;;;3.35;;
5507;SDS011;2776;51.046;6.772;2022-07-23T14:15:07;2.97;;;2.30;;
5507;SDS011;2776;51.046;6.772;2022-07-23T14:17:35;2.35;;;2.15;;
5507;SDS011;2776;51.046;6.772;2022-07-23T14:20:03;3.78;;;2.78;;
5507;SDS011;2776;51.046;6.772;2022-07-23T14:22:31;4.18;;;2.60;;
5507;SDS011;2776;51.046;6.772;2022-07-23T14:24:58;3.72;;;2.67;;
5507;SDS011;2776;51.046;6.772;2022-07-23T14:27:25;3.20;;;2.50;;
5507;SDS011;2776;51.046;6.772;2022-07-23T14:29:54;2.25;;;2.05;;
5507;SDS011;2776;51.046;6.772;2022-07-23T14:32:22;2.30;;;2.10;;
5507;SDS011;2776;51.046;6.772;2022-07-23T14:34:49;2.33;;;2.10;;
5507;SDS011;2776;51.046;6.772;2022-07-23T14:37:17;4.93;;;3.55;;
5507;SDS011;2776;51.046;6.772;2022-07-23T14:39:45;4.60;;;3.10;;
5507;SDS011;2776;51.046;6.772;2022-07-23T14:42:12;3.08;;;2.20;;
5507;SDS011;2776;51.046;6.772;2022-07-23T14:44:40;2.40;;;2.13;;
5507;SDS011;2776;51.046;6.772;2022-07-23T14:47:09;2.63;;;2.05;;
5507;SDS011;2776;51.046;6.772;2022-07-23T14:49:36;2.30;;;2.10;;
5507;SDS011;2776;51.046;6.772;2022-07-23T14:52:03;2.30;;;1.80;;
5507;SDS011;2776;51.046;6.772;2022-07-23T14:54:30;3.22;;;2.17;;
5507;SDS011;2776;51.046;6.772;2022-07-23T14:56:58;2.28;;;2.10;;
5507;SDS011;2776;51.046;6.772;2022-07-23T14:59:27;2.22;;;2.10;;
5507;SDS011;2776;51.046;6.772;2022-07-23T15:01:55;7.55;;;6.50;;
5507;SDS011;2776;51.046;6.772;2022-07-23T15:04:23;3.22;;;2.60;;
5507;SDS011;2776;51.046;6.772;2022-07-23T15:06:50;3.00;;;2.22;;
5507;SDS011;2776;51.046;6.772;2022-07-23T15:09:17;2.65;;;2.30;;
5507;SDS011;2776;51.046;6.772;2022-07-23T15:11:44;2.50;;;2.30;;
5507;SDS011;2776;51.046;6.772;2022-07-23T15:14:11;2.22;;;2.08;;
5507;SDS011;2776;51.046;6.772;2022-07-23T15:16:38;2.55;;;2.17;;